Time;durP1;ratioP1;P1;durP2;ratioP2;P2;SDS_P1;SDS_P2;PMS_P1;PMS_P2;Temp;Humidity;BMP_temperature;BMP_pressure;BME280_temperature;BME280_humidity;BME280_pressure;Samples;Min_cycle;Max_cycle;Signal;HPM_P1;HPM_P2
2022/05/20 00:00:58;;;;;;;20.88;14.98;;;;;;;12.52;80.56;102104.91;4985540;28;20049;-68
2022/05/20 00:03:24;;;;;;;19.15;14.88;;;;;;;12.51;80.42;102112.22;4985800;28;20043;-68
2022/05/20 00:05:49;;;;;;;21.10;14.70;;;;;;;12.50;79.98;102110.47;4979232;28;20412;-68
2022/05/20 00:08:15;;;;;;;26.25;16.98;;;;;;;12.42;80.84;102104.56;4990186;28;20062;-68
2022/05/20 00:10:40;;;;;;;20.83;14.95;;;;;;;12.42;80.89;102104.56;4990003;28;20034;-68
2022/05/20 00:13:06;;;;;;;21.83;13.95;;;;;;;12.42;80.54;102106.44;4989190;28;20045;-71
2022/05/20 00:15:32;;;;;;;21.60;14.77;;;;;;;12.36;81.24;102101.34;4981905;28;20065;-72
2022/05/20 00:17:57;;;;;;;22.45;15.65;;;;;;;12.32;80.33;102097.91;4974978;28;20026;-71
2022/05/20 00:20:24;;;;;;;23.60;15.25;;;;;;;12.30;80.89;102097.13;4966378;28;20026;-69
2022/05/20 00:22:50;;;;;;;22.27;15.18;;;;;;;12.27;80.67;102100.03;4982914;28;20042;-71
2022/05/20 00:28:02;;;;;;;24.58;16.38;;;;;;;12.20;81.08;102104.09;4985712;28;20070;-69
2022/05/20 00:30:28;;;;;;;30.10;16.42;;;;;;;12.16;81.74;102103.38;4990216;28;20081;-71
2022/05/20 00:32:54;;;;;;;25.45;16.55;;;;;;;12.13;81.52;102094.53;4989628;28;20086;-69
2022/05/20 00:35:22;;;;;;;22.17;13.80;;;;;;;12.10;81.29;102097.44;4988512;28;20065;-69
2022/05/20 00:37:47;;;;;;;22.70;16.30;;;;;;;12.08;81.35;102089.34;4982634;28;20045;-72
2022/05/20 00:40:16;;;;;;;23.02;15.68;;;;;;;12.06;81.04;102088.53;4990909;28;20026;-70
2022/05/20 00:42:42;;;;;;;29.20;16.05;;;;;;;12.07;81.32;102094.88;4989825;28;20065;-71
2022/05/20 00:45:10;;;;;;;31.00;16.92;;;;;;;12.02;81.84;102100.59;4972823;28;20034;-69
2022/05/20 00:47:35;;;;;;;29.40;17.45;;;;;;;11.97;81.55;102089.94;4982171;28;20034;-72
2022/05/20 00:50:06;;;;;;;27.27;16.92;;;;;;;11.92;81.72;102094.78;4985253;28;20367;-69
2022/05/20 00:52:34;;;;;;;25.02;17.65;;;;;;;11.90;82.19;102090.41;4979194;28;20397;-71
2022/05/20 00:55:05;;;;;;;27.80;17.55;;;;;;;11.86;82.44;102094.28;4977910;28;20446;-71
2022/05/20 00:57:35;;;;;;;34.67;17.70;;;;;;;11.83;82.93;102086.28;4971543;28;20054;-71
2022/05/20 01:00:09;;;;;;;23.48;16.80;;;;;;;11.80;82.32;102084.59;4971614;28;20678;-72
2022/05/20 01:02:36;;;;;;;21.92;17.15;;;;;;;11.80;82.47;102092.75;4974566;28;20045;-71
2022/05/20 01:05:03;;;;;;;26.08;16.65;;;;;;;11.79;81.98;102087.38;4990408;28;20117;-68
2022/05/20 01:07:36;;;;;;;22.50;16.33;;;;;;;11.74;82.23;102083.06;4985440;28;20433;-72
2022/05/20 01:10:01;;;;;;;;;;;;;;;11.80;80.52;102090.03;4990469;28;20093;-71
2022/05/20 01:12:27;;;;;;;22.77;16.02;;;;;;;11.71;82.33;102079.66;4982098;28;19922;-69
2022/05/20 01:14:53;;;;;;;25.65;16.95;;;;;;;11.75;82.23;102093.03;4972675;28;20105;-71
2022/05/20 01:17:19;;;;;;;24.55;16.20;;;;;;;11.75;82.44;102094.88;4976956;28;20150;-71
2022/05/20 01:19:54;;;;;;;22.30;16.60;;;;;;;11.75;82.50;102095.75;4988955;28;20030;-71
2022/05/20 01:22:34;;;;;;;26.15;17.27;;;;;;;11.75;82.88;102094.88;4979362;28;20030;-69
2022/05/20 01:25:01;;;;;;;31.42;15.85;;;;;;;11.75;82.88;102095.75;4990322;28;20030;-71
2022/05/20 01:27:27;;;;;;;21.23;15.60;;;;;;;11.78;82.19;102085.63;4987413;28;20100;-71
2022/05/20 01:29:52;;;;;;;22.55;16.55;;;;;;;11.79;82.49;102084.66;4973821;28;20101;-71
2022/05/20 01:32:18;;;;;;;21.42;15.90;;;;;;;11.78;82.47;102088.34;4985331;28;20108;-71
2022/05/20 01:34:43;;;;;;;20.58;14.65;;;;;;;11.73;82.79;102086.75;4977895;28;20035;-69
2022/05/20 01:39:49;;;;;;;22.70;14.05;;;;;;;11.62;82.73;102072.00;4982456;28;20106;-90
2022/05/20 01:42:24;;;;;;;20.23;14.82;;;;;;;11.62;82.64;102072.88;4957300;28;20074;-90
2022/05/20 01:44:55;;;;;;;29.65;17.42;;;;;;;11.62;83.30;102058.38;4988579;28;20192;-89
2022/05/20 01:47:27;;;;;;;34.38;18.67;;;;;;;11.62;83.69;102064.72;4954055;28;20039;-91
2022/05/20 01:50:17;;;;;;;31.38;18.05;;;;;;;11.63;83.11;102061.00;4979194;28;20042;-90
2022/05/20 01:53:21;;;;;;;51.13;19.33;;;;;;;11.63;83.27;102061.00;4967080;28;20051;-90
2022/05/20 01:56:00;;;;;;;39.17;19.80;;;;;;;11.62;83.31;102053.81;4878995;29;20140;-89
2022/05/20 01:58:58;;;;;;;29.58;17.63;;;;;;;11.66;82.47;102058.13;4956486;28;20038;-90
2022/05/20 02:01:36;;;;;;;29.13;18.17;;;;;;;11.65;82.91;102052.72;4947821;28;20061;-90
2022/05/20 02:04:12;;;;;;;28.75;18.30;;;;;;;11.65;82.87;102061.78;4997581;28;20053;-90
2022/05/20 02:06:46;;;;;;;34.78;19.50;;;;;;;11.65;82.64;102060.91;4965092;28;20393;-92
2022/05/20 02:09:37;;;;;;;38.63;19.40;;;;;;;11.66;82.58;102055.41;4983876;28;20471;-90
2022/05/20 02:12:03;;;;;;;40.78;19.88;;;;;;;11.58;83.37;102054.94;4978562;28;20031;-90
2022/05/20 02:14:55;;;;;;;25.70;16.15;;;;;;;11.49;82.99;102041.84;4993814;28;20137;-91
2022/05/20 02:17:35;;;;;;;26.80;17.50;;;;;;;11.44;82.15;102039.38;4994090;28;20045;-90
2022/05/20 02:20:09;;;;;;;29.80;18.52;;;;;;;11.41;82.94;102052.28;4977755;28;20042;-90
2022/05/20 02:22:40;;;;;;;23.83;17.73;;;;;;;11.31;82.96;102038.31;4982389;28;20555;-90
2022/05/20 02:25:17;;;;;;;24.27;17.63;;;;;;;11.33;82.96;102051.84;4974038;28;20038;-90
2022/05/20 02:27:48;;;;;;;22.85;16.80;;;;;;;11.16;82.61;102020.13;4943159;28;20136;-89
2022/05/20 02:30:21;;;;;;;24.50;16.52;;;;;;;11.33;82.75;102052.75;4950043;28;20327;-90
2022/05/20 02:32:53;;;;;;;21.42;16.10;;;;;;;11.29;82.96;102044.84;4969187;28;20065;-90
2022/05/20 02:35:27;;;;;;;23.88;16.85;;;;;;;11.11;82.41;102019.50;4964639;28;20030;-91
2022/05/20 02:37:53;;;;;;;22.75;16.35;;;;;;;11.17;82.84;102028.19;4956887;28;20051;-90
2022/05/20 02:40:22;;;;;;;30.38;17.23;;;;;;;11.13;83.39;102034.78;4948941;28;20050;-90
2022/05/20 02:42:56;;;;;;;27.70;17.58;;;;;;;10.96;82.95;102023.97;4981291;28;20525;-89
2022/05/20 02:45:22;;;;;;;27.58;18.25;;;;;;;10.95;82.90;102022.19;4946907;28;20035;-91
2022/05/20 02:47:47;;;;;;;29.45;17.42;;;;;;;11.05;82.76;102036.16;4968373;28;20466;-90
2022/05/20 02:50:13;;;;;;;26.35;18.77;;;;;;;11.12;82.92;102043.03;4966605;28;20027;-90
2022/05/20 02:52:38;;;;;;;23.38;17.85;;;;;;;11.07;83.45;102037.84;4968613;28;20039;-91
2022/05/20 02:55:05;;;;;;;23.05;16.88;;;;;;;10.98;83.15;102036.50;4966457;28;20490;-91
2022/05/20 02:57:31;;;;;;;24.65;16.48;;;;;;;11.02;83.35;102047.25;4956649;28;20026;-90
2022/05/20 03:05:45;;;;;;;25.52;17.08;;;;;;;10.93;83.10;102035.00;4998335;28;20122;-90
2022/05/20 03:08:11;;;;;;;26.92;16.52;;;;;;;10.92;83.33;102036.84;4960516;28;20023;-90
2022/05/20 03:10:36;;;;;;;25.88;16.45;;;;;;;10.94;83.09;102040.34;4994589;28;20028;-90
2022/05/20 03:13:05;;;;;;;33.22;18.02;;;;;;;10.91;83.96;102029.66;4932771;29;21362;-90
2022/05/20 03:15:36;;;;;;;45.60;17.58;;;;;;;10.85;84.23;102023.66;4967898;28;20376;-90
2022/05/20 03:18:02;;;;;;;26.70;16.65;;;;;;;10.87;83.54;102027.19;4971026;28;20130;-90
2022/05/20 03:20:34;;;;;;;29.55;18.48;;;;;;;10.87;83.91;102036.22;4962412;28;20049;-89
2022/05/20 03:23:03;;;;;;;33.05;17.73;;;;;;;10.83;83.68;102022.88;4994776;28;20027;-90
2022/05/20 03:25:28;;;;;;;31.20;17.15;;;;;;;10.87;83.42;102030.78;4993407;28;20050;-90
2022/05/20 03:27:54;;;;;;;23.42;17.58;;;;;;;10.85;83.75;102024.53;4961405;28;20047;-90
2022/05/20 03:30:36;;;;;;;32.08;17.83;;;;;;;10.71;83.49;102008.06;4969939;28;20026;-91
2022/05/20 03:33:06;;;;;;;29.10;16.63;;;;;;;10.82;83.78;102027.44;4964570;28;20336;-91
2022/05/20 03:35:35;;;;;;;28.45;17.23;;;;;;;10.66;83.70;102004.72;4958984;28;20035;-90
2022/05/20 03:38:07;;;;;;;29.42;17.83;;;;;;;10.68;84.17;102002.81;4952063;28;20051;-89
2022/05/20 03:40:40;;;;;;;27.27;18.25;;;;;;;10.67;84.21;102017.34;4971819;28;20035;-89
2022/05/20 03:43:09;;;;;;;26.83;18.05;;;;;;;10.70;84.03;102015.34;4964565;28;20478;-90
2022/05/20 03:45:40;;;;;;;28.90;17.05;;;;;;;10.60;83.66;102005.94;4951791;28;20097;-91
2022/05/20 03:48:10;;;;;;;29.95;17.70;;;;;;;10.57;84.01;102005.22;4990425;28;20050;-91
2022/05/20 03:50:35;;;;;;;23.65;17.45;;;;;;;10.62;83.87;102016.72;4959137;28;20046;-90
2022/05/20 03:53:00;;;;;;;26.92;17.08;;;;;;;10.68;84.45;102021.88;4957645;28;20041;-90
2022/05/20 03:55:45;;;;;;;32.60;17.20;;;;;;;10.58;84.11;101994.22;4943779;28;20070;-90
2022/05/20 03:58:11;;;;;;;54.05;18.33;;;;;;;10.60;85.11;102002.34;4965090;28;20071;-90
2022/05/20 04:03:24;;;;;;;27.65;18.23;;;;;;;10.73;85.25;102014.31;4943530;28;20039;-89
2022/05/20 04:05:51;;;;;;;32.45;19.67;;;;;;;10.66;86.71;102005.59;4960058;28;20118;-88
2022/05/20 04:08:17;;;;;;;25.90;17.67;;;;;;;10.57;86.39;101987.03;4987424;28;20485;-90
2022/05/20 04:10:43;;;;;;;23.88;16.95;;;;;;;10.67;86.52;101996.47;4962533;28;20041;-90
2022/05/20 04:13:11;;;;;;;23.13;16.40;;;;;;;10.72;85.40;101990.75;5004393;28;20094;-90
2022/05/20 04:15:37;;;;;;;29.80;17.50;;;;;;;10.81;85.67;101994.84;4960114;28;20484;-91
2022/05/20 04:18:03;;;;;;;32.33;19.30;;;;;;;10.84;85.80;101992.81;4969975;28;20031;-89
2022/05/20 04:20:42;;;;;;;29.63;18.83;;;;;;;10.84;86.60;101981.94;4993463;28;20362;-90
2022/05/20 04:23:07;;;;;;;30.45;18.35;;;;;;;10.90;86.17;101986.16;4973995;28;20035;-92
2022/05/20 04:25:33;;;;;;;31.70;18.85;;;;;;;10.97;86.35;101988.47;4968748;28;20109;-89
2022/05/20 04:28:00;;;;;;;28.73;18.73;;;;;;;11.05;85.84;101988.03;4946772;28;20361;-90
2022/05/20 04:30:25;;;;;;;33.95;19.02;;;;;;;11.13;85.67;101987.59;4954523;28;20022;-89
2022/05/20 04:32:51;;;;;;;32.13;20.27;;;;;;;11.16;86.39;101982.84;5004646;28;20073;-91
2022/05/20 04:35:16;;;;;;;36.28;19.23;;;;;;;11.24;85.81;101982.44;4973034;28;20031;-91
2022/05/20 04:37:45;;;;;;;34.15;20.42;;;;;;;11.33;86.53;101984.63;4962399;28;20473;-90
2022/05/20 04:40:16;;;;;;;38.40;19.52;;;;;;;11.41;85.76;101992.34;4962601;28;20043;-90
2022/05/20 04:48:18;;;;;;;35.10;21.92;;;;;;;11.62;85.74;101995.69;4951448;28;20106;-90
2022/05/20 04:50:47;;;;;;;33.53;22.15;;;;;;;11.72;86.10;102000.50;4951551;28;20026;-90
2022/05/20 04:54:49;;;;;;;38.22;23.50;;;;;;;11.86;86.36;102012.47;4957901;28;20417;-89
2022/05/20 04:56:00;;;;;;;46.88;21.80;;;;;;;11.95;85.80;102018.25;4971237;28;20038;-90
2022/05/20 04:58:26;;;;;;;39.35;23.15;;;;;;;11.93;86.34;102006.56;4957699;28;20027;-90
2022/05/20 05:00:51;;;;;;;47.67;23.85;;;;;;;12.14;86.25;102018.03;4952911;28;20094;-90
2022/05/20 05:03:16;;;;;;;44.35;24.27;;;;;;;12.32;85.59;102028.81;4948931;28;20039;-90
2022/05/20 05:05:42;;;;;;;43.38;23.17;;;;;;;12.38;85.52;102023.84;4963841;28;20034;-90
2022/05/20 05:08:07;;;;;;;50.67;24.85;;;;;;;12.44;85.67;102022.59;4999865;28;20058;-90
2022/05/20 05:10:33;;;;;;;67.97;25.50;;;;;;;12.46;85.68;102013.34;4931940;28;20477;-90
2022/05/20 05:13:00;;;;;;;51.63;25.88;;;;;;;12.51;86.24;102013.94;4955998;28;20039;-91
2022/05/20 05:15:26;;;;;;;98.35;28.17;;;;;;;12.56;87.23;102008.19;4977671;28;20611;-92
2022/05/20 05:18:09;;;;;;;49.38;24.42;;;;;;;12.57;86.42;102000.88;4965662;28;20034;-89
2022/05/20 05:20:36;;;;;;;48.72;25.58;;;;;;;12.70;86.11;102010.06;4984490;28;20034;-90
2022/05/20 05:23:23;;;;;;;38.30;24.63;;;;;;;12.82;85.32;102012.00;4947617;28;20480;-90
2022/05/20 05:25:48;;;;;;;37.38;25.70;;;;;;;12.97;85.80;102004.72;4974999;28;20042;-91
2022/05/20 05:28:14;;;;;;;38.85;25.50;;;;;;;13.20;85.39;102025.97;4970606;28;20463;-90
2022/05/20 05:30:55;;;;;;;40.38;27.67;;;;;;;13.35;85.20;102017.78;4953777;28;20036;-90
2022/05/20 05:33:21;;;;;;;36.72;26.63;;;;;;;13.43;84.32;102005.38;4955296;28;20089;-90
2022/05/20 05:35:47;;;;;;;41.90;28.50;;;;;;;13.54;85.42;102001.91;4971981;28;20019;-91
2022/05/20 05:38:12;;;;;;;45.05;28.45;;;;;;;13.47;85.08;101978.69;4974149;28;20054;-92
2022/05/20 05:40:39;;;;;;;40.63;27.88;;;;;;;13.55;85.18;101991.84;4958439;28;20128;-90
2022/05/20 05:43:04;;;;;;;42.40;28.25;;;;;;;13.65;84.46;101987.53;4972030;28;20072;-91
2022/05/20 05:45:32;;;;;;;42.15;27.67;;;;;;;13.81;84.38;101990.13;4983961;28;20022;-90
2022/05/20 05:48:07;;;;;;;40.33;27.63;;;;;;;13.93;85.09;101987.41;4965690;28;20161;-91
2022/05/20 05:50:36;;;;;;;44.70;28.73;;;;;;;14.03;85.89;101976.69;4968082;28;20062;-90
2022/05/20 05:53:07;;;;;;;41.92;29.55;;;;;;;14.08;85.19;101971.78;4976002;28;20026;-90
2022/05/20 05:55:33;;;;;;;45.70;30.50;;;;;;;14.16;84.97;101971.25;4944998;28;20049;-89
2022/05/20 05:57:58;;;;;;;46.45;29.52;;;;;;;14.22;85.39;101962.63;4968630;28;20038;-91
2022/05/20 06:00:24;;;;;;;43.83;27.95;;;;;;;14.30;84.79;101963.84;4979216;28;20070;-91
2022/05/20 06:02:49;;;;;;;39.05;25.10;;;;;;;14.40;83.77;101974.13;4952571;28;20414;-90
2022/05/20 06:05:20;;;;;;;42.70;28.33;;;;;;;14.52;83.24;101978.78;4990264;28;20038;-89
2022/05/20 06:08:03;;;;;;;36.33;25.65;;;;;;;14.70;83.17;101973.88;4952284;28;20074;-92
2022/05/20 06:10:31;;;;;;;36.22;24.55;;;;;;;14.74;81.97;101976.28;4974687;28;20038;-90
2022/05/20 06:12:56;;;;;;;35.05;24.52;;;;;;;14.68;82.97;101971.22;4980615;28;20481;-90
2022/05/20 06:15:22;;;;;;;39.10;25.58;;;;;;;14.62;83.46;101974.41;4980197;28;20148;-91
2022/05/20 06:17:49;;;;;;;36.13;23.77;;;;;;;14.68;82.45;101984.91;4947778;28;20038;-92
2022/05/20 06:20:15;;;;;;;33.92;23.20;;;;;;;14.71;83.51;101975.63;5002188;28;20030;-92
2022/05/20 06:22:41;;;;;;;33.53;22.15;;;;;;;14.70;82.93;101972.00;4952595;28;20034;-90
2022/05/20 06:25:07;;;;;;;40.08;23.45;;;;;;;14.71;83.87;101975.63;4951617;28;20477;-93
2022/05/20 06:27:33;;;;;;;36.67;24.02;;;;;;;14.68;84.15;101971.22;4977320;28;20108;-88
2022/05/20 06:29:59;;;;;;;34.40;22.23;;;;;;;14.69;83.13;101963.91;4945271;28;20158;-90
2022/05/20 06:32:24;;;;;;;28.90;19.67;;;;;;;14.67;80.96;101964.00;4961460;28;20022;-86
2022/05/20 06:40:46;;;;;;;27.00;18.95;;;;;;;14.86;82.13;101944.38;4997506;28;20133;-91
2022/05/20 06:43:13;;;;;;;29.52;18.77;;;;;;;14.89;80.67;101940.53;4968529;28;20082;-91
2022/05/20 06:45:39;;;;;;;29.13;18.27;;;;;;;15.01;81.98;101931.41;4984944;28;20509;-93
2022/05/20 06:48:08;;;;;;;27.40;17.58;;;;;;;15.15;79.63;101946.81;4995744;28;20960;-90
2022/05/20 06:50:37;;;;;;;27.02;17.83;;;;;;;15.22;78.26;101939.91;4946530;28;20073;-91
2022/05/20 06:53:02;;;;;;;20.98;16.38;;;;;;;15.22;78.81;101931.69;4982660;28;20042;-91
2022/05/20 06:55:28;;;;;;;26.73;17.02;;;;;;;15.24;78.15;101941.53;4970553;28;20065;-91
2022/05/20 06:57:53;;;;;;;26.27;17.92;;;;;;;15.39;79.82;101938.63;4979742;28;20069;-90
2022/05/20 07:00:19;;;;;;;24.42;18.13;;;;;;;15.59;78.72;101935.25;4957823;28;20046;-92
2022/05/20 07:02:44;;;;;;;27.98;19.77;;;;;;;15.81;79.33;101923.56;4997615;28;20047;-92
2022/05/20 07:05:10;;;;;;;27.95;19.17;;;;;;;16.02;78.18;101921.88;4958005;28;20355;-93
2022/05/20 07:07:39;;;;;;;27.27;17.95;;;;;;;16.23;76.13;101923.94;4988183;28;20030;-91
2022/05/20 07:10:09;;;;;;;24.92;17.92;;;;;;;16.39;75.45;101920.84;4992991;28;20125;-90
2022/05/20 07:12:41;;;;;;;22.75;16.58;;;;;;;16.57;75.30;101916.63;4959615;28;20463;-91
2022/05/20 07:15:10;;;;;;;19.92;15.68;;;;;;;17.00;74.81;101913.13;4943624;28;20121;-90
2022/05/20 07:17:41;;;;;;;23.38;14.70;;;;;;;17.29;71.84;101914.31;4964499;28;20047;-90
2022/05/20 07:20:07;;;;;;;21.75;15.73;;;;;;;17.43;70.97;101898.53;4973414;28;20046;-92
2022/05/20 07:22:33;;;;;;;21.25;14.82;;;;;;;17.74;71.19;101899.59;4957748;28;20043;-90
2022/05/20 07:25:11;;;;;;;19.60;14.13;;;;;;;17.82;69.37;101886.91;4952376;28;20164;-93
2022/05/20 07:27:40;;;;;;;21.50;13.50;;;;;;;17.74;69.02;101878.44;4961698;28;20038;-90
2022/05/20 07:30:12;;;;;;;20.35;12.93;;;;;;;17.76;71.39;101868.16;4960840;28;20385;-90
2022/05/20 07:32:40;;;;;;;17.97;14.23;;;;;;;17.88;69.80;101865.38;4995400;28;20172;-89
2022/05/20 07:35:06;;;;;;;18.77;13.82;;;;;;;18.07;67.89;101873.75;4941758;28;20133;-89
2022/05/20 07:37:32;;;;;;;19.20;13.63;;;;;;;18.34;68.24;101886.97;4977734;28;20141;-89
2022/05/20 07:39:58;;;;;;;15.82;12.20;;;;;;;18.57;67.91;101890.44;4968874;28;20045;-88
2022/05/20 07:42:24;;;;;;;18.23;13.80;;;;;;;18.50;67.34;101886.47;4963958;28;20103;-88
2022/05/20 07:44:49;;;;;;;19.58;12.40;;;;;;;18.66;66.95;101875.84;4977780;28;20051;-89
2022/05/20 07:47:14;;;;;;;19.05;13.10;;;;;;;18.85;67.58;101864.91;4957973;28;20066;-87
2022/05/20 07:49:43;;;;;;;19.90;12.75;;;;;;;19.14;65.29;101863.25;4968795;28;20474;-87
2022/05/20 07:53:19;;;;;;;16.70;11.55;;;;;;;19.37;66.82;101859.22;4955875;28;20050;-91
2022/05/20 07:55:17;;;;;;;14.43;11.25;;;;;;;19.51;65.27;101860.69;4970135;28;20038;-89
2022/05/20 07:57:44;;;;;;;14.98;10.80;;;;;;;19.43;62.91;101836.53;4982257;28;20380;-87
2022/05/20 08:00:14;;;;;;;15.25;11.05;;;;;;;19.69;65.91;101839.66;4945060;28;20035;-89
2022/05/20 08:02:55;;;;;;;13.45;10.02;;;;;;;19.92;64.58;101836.56;4966554;28;20042;-89
2022/05/20 08:05:21;;;;;;;14.85;10.25;;;;;;;20.01;61.60;101832.91;4979854;28;20114;-89
2022/05/20 08:07:55;;;;;;;14.13;10.57;;;;;;;20.24;61.00;101826.03;4964851;28;20035;-88
2022/05/20 08:10:26;;;;;;;11.98;8.98;;;;;;;20.38;60.30;101805.31;5000301;28;20023;-88
2022/05/20 08:13:07;;;;;;;14.32;8.13;;;;;;;20.76;61.60;101809.81;4976109;28;20084;-90
2022/05/20 08:15:36;;;;;;;9.27;7.30;;;;;;;21.06;56.93;101804.97;4965768;28;20433;-88
2022/05/20 08:18:01;;;;;;;11.20;7.32;;;;;;;21.32;57.58;101814.28;5000468;28;20043;-89
2022/05/20 08:20:30;;;;;;;11.52;7.35;;;;;;;21.45;57.59;101813.91;4979354;28;20101;-87
2022/05/20 08:22:57;;;;;;;10.02;7.30;;;;;;;21.75;56.54;101820.03;4950574;28;20127;-90
2022/05/20 08:25:24;;;;;;;11.88;6.82;;;;;;;21.95;55.24;101798.53;4948022;28;20066;-89
2022/05/20 08:27:54;;;;;;;10.68;7.72;;;;;;;21.89;56.14;101798.16;4948306;28;20051;-87
2022/05/20 08:30:27;;;;;;;14.63;8.60;;;;;;;22.08;54.04;101826.69;4978341;28;20053;-88
2022/05/20 08:32:52;;;;;;;11.32;8.93;;;;;;;21.76;53.24;101803.25;4922676;28;20115;-90
2022/05/20 08:35:27;;;;;;;12.23;8.35;;;;;;;21.49;54.57;101795.91;4979339;28;20449;-90
2022/05/20 08:37:55;;;;;;;11.35;7.88;;;;;;;21.68;56.29;101786.56;4963382;28;20059;-91
2022/05/20 08:40:26;;;;;;;15.57;8.95;;;;;;;21.79;54.07;101788.22;4975477;28;20069;-88
2022/05/20 08:42:57;;;;;;;12.80;8.52;;;;;;;21.88;53.56;101799.19;4963459;28;20130;-90
2022/05/20 08:45:27;;;;;;;15.23;9.25;;;;;;;21.72;53.45;101789.88;4950041;28;20121;-92
2022/05/20 08:47:56;;;;;;;15.60;8.40;;;;;;;21.55;55.34;101745.44;4978730;28;20038;-90
2022/05/20 08:50:30;;;;;;;14.13;8.77;;;;;;;21.66;53.66;101769.25;4974692;28;20061;-89
2022/05/20 08:52:57;;;;;;;14.63;9.32;;;;;;;21.72;52.20;101740.03;4952869;28;20031;-91
2022/05/20 08:55:28;;;;;;;16.05;9.27;;;;;;;22.03;54.25;101735.72;4970582;28;20121;-92
2022/05/20 08:57:59;;;;;;;14.85;8.68;;;;;;;22.44;54.72;101747.06;4973367;28;20496;-90
2022/05/20 09:00:29;;;;;;;10.40;8.35;;;;;;;22.56;53.17;101745.72;4958144;28;20045;-88
2022/05/20 09:02:57;;;;;;;11.32;7.97;;;;;;;22.42;54.60;101727.78;4990392;28;20054;-90
2022/05/20 09:05:33;;;;;;;13.40;8.55;;;;;;;22.58;54.43;101737.25;4967219;28;20030;-89
2022/05/20 09:08:03;;;;;;;13.82;9.93;;;;;;;22.56;53.32;101751.25;4968959;28;20046;-93
2022/05/20 09:11:11;;;;;;;17.65;10.65;;;;;;;22.29;55.14;101727.41;4960990;28;20037;-90
2022/05/20 09:20:00;;;;;;;12.75;10.73;;;;;;;22.32;53.28;101740.94;4992483;28;19914;-91
2022/05/20 09:22:38;;;;;;;18.53;10.33;;;;;;;22.23;55.70;101711.44;4943982;28;20050;-88
2022/05/20 09:25:13;;;;;;;14.60;9.88;;;;;;;22.55;54.59;101723.69;4958432;28;20807;-91
2022/05/20 09:28:31;;;;;;;17.63;10.48;;;;;;;23.14;56.21;101702.34;4939096;28;20045;-90
2022/05/20 09:31:23;;;;;;;15.50;10.40;;;;;;;23.31;53.50;101669.88;4958675;28;20493;-91
2022/05/20 09:34:01;;;;;;;17.02;10.65;;;;;;;23.19;50.48;101676.84;4954435;28;20047;-87
2022/05/20 09:40:06;;;;;;;14.88;9.90;;;;;;;23.57;52.63;101650.25;4952049;28;20077;-88
2022/05/20 09:43:22;;;;;;;14.93;9.73;;;;;;;23.73;52.68;101650.22;4941049;29;20043;-90
2022/05/20 09:46:01;;;;;;;22.15;10.85;;;;;;;23.62;52.41;101650.59;4935231;28;20039;-86
2022/05/20 09:49:11;;;;;;;18.27;10.10;;;;;;;23.47;52.10;101636.56;4952171;28;20035;-89
2022/05/20 09:51:40;;;;;;;16.77;9.90;;;;;;;23.39;51.29;101639.34;4919679;29;20035;-91
2022/05/20 09:54:37;;;;;;;15.93;10.52;;;;;;;23.36;52.27;101636.91;4944078;28;20077;-89
2022/05/20 09:57:16;;;;;;;13.57;8.63;;;;;;;23.59;53.04;101598.13;4912334;29;20067;-89
2022/05/20 10:00:13;;;;;;;15.88;9.38;;;;;;;24.09;52.97;101619.19;4940203;28;20102;-93
2022/05/20 10:02:53;;;;;;;12.88;8.85;;;;;;;24.30;53.22;101618.56;4935754;29;20066;-92
2022/05/20 10:05:37;;;;;;;16.90;9.30;;;;;;;24.37;50.95;101600.97;4928449;29;20039;-93
2022/05/20 10:08:10;;;;;;;10.52;8.10;;;;;;;24.62;51.45;101600.81;4946161;28;20043;-91
2022/05/20 10:11:03;;;;;;;13.55;9.15;;;;;;;24.57;50.99;101590.22;4935942;29;20035;-92
2022/05/20 10:13:43;;;;;;;14.07;8.93;;;;;;;24.31;52.15;101542.41;4947265;28;20040;-91
2022/05/20 10:16:39;;;;;;;16.55;9.43;;;;;;;24.33;50.71;101571.75;4935890;28;20035;-92
2022/05/20 10:19:39;;;;;;;13.75;9.77;;;;;;;24.34;52.14;101540.16;4946264;29;20047;-88
2022/05/20 10:22:22;;;;;;;13.07;8.52;;;;;;;24.47;50.59;101536.75;4959432;28;20041;-89
2022/05/20 10:25:25;;;;;;;;;;;;;;;;;;;;;
2022/05/20 10:35:09;;;;;;;12.35;8.32;;;;;;;24.43;49.32;101514.03;4951104;28;20129;-90
2022/05/20 10:38:01;;;;;;;;;;;;;;;24.61;51.54;101518.38;4938097;29;20047;-90
2022/05/20 10:41:15;;;;;;;18.35;8.77;;;;;;;24.50;50.91;101502.16;4935092;28;20021;-89
2022/05/20 10:51:08;;;;;;;13.18;8.88;;;;;;;24.36;52.06;101456.50;4884076;29;20124;-90
2022/05/20 10:53:52;;;;;;;17.75;11.07;;;;;;;24.18;50.85;101442.91;4871768;29;20052;-90
2022/05/20 10:56:47;;;;;;;16.75;11.52;;;;;;;24.10;51.89;101429.06;4860855;29;20440;-92
2022/05/20 10:59:27;;;;;;;17.23;10.98;;;;;;;24.09;52.34;101416.22;4858537;29;20053;-89
2022/05/20 11:02:24;;;;;;;19.52;10.20;;;;;;;24.06;52.94;101374.88;4899144;29;20051;-90
2022/05/20 11:05:47;;;;;;;15.52;10.32;;;;;;;24.02;53.24;101370.78;4932400;28;20119;-89
2022/05/20 11:12:05;;;;;;;16.27;11.30;;;;;;;24.14;53.03;101367.34;4882525;28;20397;-90
2022/05/20 11:15:12;;;;;;;16.92;10.85;;;;;;;24.08;53.95;101336.66;4915199;28;20053;-88
2022/05/20 11:18:09;;;;;;;15.23;11.75;;;;;;;23.83;53.53;101330.47;4926300;29;20043;-89
2022/05/20 11:24:01;;;;;;;22.38;13.80;;;;;;;23.81;53.15;101329.75;4938326;29;20467;-89
2022/05/20 11:27:01;;;;;;;18.77;12.25;;;;;;;23.98;53.16;101353.59;4921675;28;20090;-89
2022/05/20 11:30:05;;;;;;;23.70;13.63;;;;;;;23.91;53.50;101335.94;4947239;28;20087;-91
2022/05/20 11:32:53;;;;;;;22.42;14.68;;;;;;;23.86;53.81;101328.16;4955502;28;20469;-91
2022/05/20 11:38:35;;;;;;;20.52;13.85;;;;;;;23.85;55.16;101320.00;4974607;28;20081;-70
2022/05/20 11:41:32;;;;;;;23.02;14.80;;;;;;;23.64;55.58;101316.00;4955059;28;20035;-65
2022/05/20 11:44:36;;;;;;;24.17;15.73;;;;;;;23.40;56.32;101314.22;4972605;28;20050;-70
2022/05/20 11:47:12;;;;;;;23.92;17.23;;;;;;;23.06;56.30;101310.97;4962660;28;20401;-70
2022/05/20 11:49:41;;;;;;;24.58;18.20;;;;;;;22.84;57.65;101304.25;4965778;28;20043;-69
2022/05/20 11:52:09;;;;;;;23.27;17.15;;;;;;;22.69;58.62;101292.19;4974144;28;20482;-64
2022/05/20 11:54:34;;;;;;;24.42;18.58;;;;;;;22.44;59.13;101275.66;4972218;28;20458;-70
2022/05/20 11:57:04;;;;;;;27.48;19.35;;;;;;;22.18;59.22;101259.25;4971889;28;20030;-64
2022/05/20 11:59:44;;;;;;;32.53;22.40;;;;;;;21.92;60.27;101270.53;4977347;28;20117;-70
2022/05/20 12:02:14;;;;;;;30.27;21.08;;;;;;;21.77;61.38;101273.13;4971839;28;20041;-65
2022/05/20 12:04:41;;;;;;;30.55;20.80;;;;;;;21.64;61.64;101276.44;4970831;28;20051;-66
2022/05/20 12:07:11;;;;;;;31.67;22.55;;;;;;;21.50;62.23;101267.97;4979816;28;20419;-65
2022/05/20 12:09:52;;;;;;;29.85;21.25;;;;;;;21.44;62.58;101308.25;4971754;28;20117;-69
2022/05/20 12:12:24;;;;;;;37.45;23.10;;;;;;;21.29;64.96;101313.56;4971367;28;20394;-68
2022/05/20 12:15:08;;;;;;;37.38;25.13;;;;;;;21.04;64.84;101268.38;4977982;28;20450;-71
2022/05/20 12:17:41;;;;;;;39.85;26.33;;;;;;;20.57;67.66;101244.00;4973899;28;20046;-71
2022/05/20 12:25:52;;;;;;;42.30;27.63;;;;;;;20.06;71.66;101248.56;4971768;28;20584;-71
2022/05/20 12:28:23;;;;;;;39.10;27.45;;;;;;;20.01;71.46;101262.00;4971325;28;20038;-70
2022/05/20 12:31:12;;;;;;;41.60;29.05;;;;;;;19.94;71.53;101249.84;4981751;28;20045;-68
2022/05/20 12:34:06;;;;;;;38.33;27.05;;;;;;;19.91;71.15;101243.78;4970400;28;20074;-68
2022/05/20 12:36:31;;;;;;;43.05;29.63;;;;;;;19.81;74.19;101228.16;4970282;28;20051;-71
2022/05/20 12:39:06;;;;;;;43.92;29.20;;;;;;;19.64;74.34;101206.16;4971430;28;20118;-72
2022/05/20 12:41:43;;;;;;;45.83;30.58;;;;;;;19.43;75.79;101165.94;4971071;28;20449;-72
2022/05/20 12:44:21;;;;;;;48.95;29.20;;;;;;;19.45;74.85;101150.09;4970409;28;20038;-69